sensor_id;sensor_type;location;lat;lon;timestamp;temperature;humidity
8892;DHT22;4482;54.332;10.118;2023-06-04T00:02:01;11.90;99.90
8892;DHT22;4482;54.332;10.118;2023-06-04T00:04:28;11.90;99.90
8892;DHT22;4482;54.332;10.118;2023-06-04T00:06:55;11.90;99.90
8892;DHT22;4482;54.332;10.118;2023-06-04T00:09:22;11.90;99.90
8892;DHT22;4482;54.332;10.118;2023-06-04T00:11:50;11.80;99.90
8892;DHT22;4482;54.332;10.118;2023-06-04T00:14:17;11.70;99.90
8892;DHT22;4482;54.332;10.118;2023-06-04T00:16:44;11.70;99.90
8892;DHT22;4482;54.332;10.118;2023-06-04T00:19:10;11.60;99.90
8892;DHT22;4482;54.332;10.118;2023-06-04T00:21:37;11.60;99.90
8892;DHT22;4482;54.332;10.118;2023-06-04T00:24:04;11.50;99.90
8892;DHT22;4482;54.332;10.118;2023-06-04T00:26:31;11.40;99.90
8892;DHT22;4482;54.332;10.118;2023-06-04T00:28:59;11.40;99.90
8892;DHT22;4482;54.332;10.118;2023-06-04T00:31:25;11.30;99.90
8892;DHT22;4482;54.332;10.118;2023-06-04T00:33:52;11.40;99.90
8892;DHT22;4482;54.332;10.118;2023-06-04T00:36:19;11.30;99.90
8892;DHT22;4482;54.332;10.118;2023-06-04T00:38:45;11.30;99.90
8892;DHT22;4482;54.332;10.118;2023-06-04T00:41:12;11.30;99.90
8892;DHT22;4482;54.332;10.118;2023-06-04T00:43:39;11.30;99.90
8892;DHT22;4482;54.332;10.118;2023-06-04T00:46:07;11.20;99.90
8892;DHT22;4482;54.332;10.118;2023-06-04T00:48:33;11.30;99.90
8892;DHT22;4482;54.332;10.118;2023-06-04T00:51:02;11.30;99.90
8892;DHT22;4482;54.332;10.118;2023-06-04T00:53:28;11.20;99.90
8892;DHT22;4482;54.332;10.118;2023-06-04T00:55:55;11.20;99.90
8892;DHT22;4482;54.332;10.118;2023-06-04T00:58:22;11.20;99.90
8892;DHT22;4482;54.332;10.118;2023-06-04T01:00:50;11.10;99.90
8892;DHT22;4482;54.332;10.118;2023-06-04T01:03:19;11.10;99.90
8892;DHT22;4482;54.332;10.118;2023-06-04T01:05:51;11.10;99.90
8892;DHT22;4482;54.332;10.118;2023-06-04T01:08:21;11.10;99.90
8892;DHT22;4482;54.332;10.118;2023-06-04T01:10:52;11.00;99.90
8892;DHT22;4482;54.332;10.118;2023-06-04T01:13:18;11.00;99.90
8892;DHT22;4482;54.332;10.118;2023-06-04T01:15:45;10.90;99.90
8892;DHT22;4482;54.332;10.118;2023-06-04T01:18:12;10.90;99.90
8892;DHT22;4482;54.332;10.118;2023-06-04T01:20:50;10.90;99.90
8892;DHT22;4482;54.332;10.118;2023-06-04T01:23:25;10.90;99.90
8892;DHT22;4482;54.332;10.118;2023-06-04T01:25:54;10.90;99.90
8892;DHT22;4482;54.332;10.118;2023-06-04T01:28:22;10.80;99.90
8892;DHT22;4482;54.332;10.118;2023-06-04T01:30:52;10.80;99.90
8892;DHT22;4482;54.332;10.118;2023-06-04T01:33:22;10.80;99.90
8892;DHT22;4482;54.332;10.118;2023-06-04T01:35:48;10.80;99.90
8892;DHT22;4482;54.332;10.118;2023-06-04T01:38:17;10.70;99.90
8892;DHT22;4482;54.332;10.118;2023-06-04T01:40:43;10.70;99.90
8892;DHT22;4482;54.332;10.118;2023-06-04T01:43:10;10.60;99.90
8892;DHT22;4482;54.332;10.118;2023-06-04T01:45:37;10.60;99.90
8892;DHT22;4482;54.332;10.118;2023-06-04T01:48:04;10.60;99.90
8892;DHT22;4482;54.332;10.118;2023-06-04T01:50:31;10.60;99.90
8892;DHT22;4482;54.332;10.118;2023-06-04T01:52:58;10.60;99.90
8892;DHT22;4482;54.332;10.118;2023-06-04T01:55:26;10.50;99.90
8892;DHT22;4482;54.332;10.118;2023-06-04T01:57:54;10.50;99.90
8892;DHT22;4482;54.332;10.118;2023-06-04T02:00:21;10.40;99.90
8892;DHT22;4482;54.332;10.118;2023-06-04T02:02:48;10.40;99.90
8892;DHT22;4482;54.332;10.118;2023-06-04T02:05:15;10.40;99.90
8892;DHT22;4482;54.332;10.118;2023-06-04T02:07:44;10.20;99.90
8892;DHT22;4482;54.332;10.118;2023-06-04T02:10:11;10.20;99.90
8892;DHT22;4482;54.332;10.118;2023-06-04T02:12:40;10.20;99.90
8892;DHT22;4482;54.332;10.118;2023-06-04T02:15:10;10.20;99.90
8892;DHT22;4482;54.332;10.118;2023-06-04T02:17:36;10.20;99.90
8892;DHT22;4482;54.332;10.118;2023-06-04T02:20:05;10.10;99.90
8892;DHT22;4482;54.332;10.118;2023-06-04T02:22:35;10.10;99.90
8892;DHT22;4482;54.332;10.118;2023-06-04T02:25:01;10.10;99.90
8892;DHT22;4482;54.332;10.118;2023-06-04T02:27:28;10.00;99.90
8892;DHT22;4482;54.332;10.118;2023-06-04T02:29:56;10.00;99.90
8892;DHT22;4482;54.332;10.118;2023-06-04T02:32:23;10.00;99.90
8892;DHT22;4482;54.332;10.118;2023-06-04T02:34:50;10.00;99.90
8892;DHT22;4482;54.332;10.118;2023-06-04T02:37:16;10.00;99.90
8892;DHT22;4482;54.332;10.118;2023-06-04T02:39:43;10.00;99.90
8892;DHT22;4482;54.332;10.118;2023-06-04T02:42:10;9.90;99.90
8892;DHT22;4482;54.332;10.118;2023-06-04T02:44:36;9.90;99.90
8892;DHT22;4482;54.332;10.118;2023-06-04T02:47:05;9.90;99.90
8892;DHT22;4482;54.332;10.118;2023-06-04T02:49:31;9.80;99.90
8892;DHT22;4482;54.332;10.118;2023-06-04T02:51:58;9.90;99.90
8892;DHT22;4482;54.332;10.118;2023-06-04T02:54:25;9.80;99.90
8892;DHT22;4482;54.332;10.118;2023-06-04T02:56:51;9.80;99.90
8892;DHT22;4482;54.332;10.118;2023-06-04T02:59:18;9.80;99.90
8892;DHT22;4482;54.332;10.118;2023-06-04T03:01:45;9.70;99.90
8892;DHT22;4482;54.332;10.118;2023-06-04T03:04:13;9.80;99.90
8892;DHT22;4482;54.332;10.118;2023-06-04T03:06:40;9.80;99.90
8892;DHT22;4482;54.332;10.118;2023-06-04T03:09:10;9.70;99.90
8892;DHT22;4482;54.332;10.118;2023-06-04T03:11:36;9.70;99.90
8892;DHT22;4482;54.332;10.118;2023-06-04T03:14:03;9.70;99.90
8892;DHT22;4482;54.332;10.118;2023-06-04T03:16:30;9.70;99.90
8892;DHT22;4482;54.332;10.118;2023-06-04T03:18:56;9.70;99.90
8892;DHT22;4482;54.332;10.118;2023-06-04T03:21:24;9.70;99.90
8892;DHT22;4482;54.332;10.118;2023-06-04T03:23:51;9.70;99.90
8892;DHT22;4482;54.332;10.118;2023-06-04T03:26:18;9.70;99.90
8892;DHT22;4482;54.332;10.118;2023-06-04T03:28:44;9.70;99.90
8892;DHT22;4482;54.332;10.118;2023-06-04T03:31:11;9.70;99.90
8892;DHT22;4482;54.332;10.118;2023-06-04T03:33:38;9.70;99.90
8892;DHT22;4482;54.332;10.118;2023-06-04T03:36:04;9.80;99.90
8892;DHT22;4482;54.332;10.118;2023-06-04T03:38:32;9.80;99.90
8892;DHT22;4482;54.332;10.118;2023-06-04T03:40:59;9.80;99.90
8892;DHT22;4482;54.332;10.118;2023-06-04T03:43:26;9.90;99.90
8892;DHT22;4482;54.332;10.118;2023-06-04T03:45:52;9.80;99.90
8892;DHT22;4482;54.332;10.118;2023-06-04T03:48:19;9.80;99.90
8892;DHT22;4482;54.332;10.118;2023-06-04T03:50:45;9.90;99.90
8892;DHT22;4482;54.332;10.118;2023-06-04T03:53:12;9.90;99.90
8892;DHT22;4482;54.332;10.118;2023-06-04T03:55:40;10.00;99.90
8892;DHT22;4482;54.332;10.118;2023-06-04T03:58:07;10.00;99.90
8892;DHT22;4482;54.332;10.118;2023-06-04T04:00:37;10.10;99.90
8892;DHT22;4482;54.332;10.118;2023-06-04T04:03:03;10.10;99.90
8892;DHT22;4482;54.332;10.118;2023-06-04T04:05:33;10.10;99.90
8892;DHT22;4482;54.332;10.118;2023-06-04T04:08:01;10.20;99.90
8892;DHT22;4482;54.332;10.118;2023-06-04T04:10:27;10.30;99.90
8892;DHT22;4482;54.332;10.118;2023-06-04T04:12:55;10.40;99.90
8892;DHT22;4482;54.332;10.118;2023-06-04T04:15:23;10.40;99.90
8892;DHT22;4482;54.332;10.118;2023-06-04T04:17:50;10.50;99.90
8892;DHT22;4482;54.332;10.118;2023-06-04T04:20:16;10.60;99.90
8892;DHT22;4482;54.332;10.118;2023-06-04T04:22:43;10.70;99.90
8892;DHT22;4482;54.332;10.118;2023-06-04T04:25:10;10.80;99.90
8892;DHT22;4482;54.332;10.118;2023-06-04T04:27:36;10.90;99.90
8892;DHT22;4482;54.332;10.118;2023-06-04T04:30:07;11.00;99.90
8892;DHT22;4482;54.332;10.118;2023-06-04T04:32:34;11.10;99.90
8892;DHT22;4482;54.332;10.118;2023-06-04T04:35:04;11.20;99.90
8892;DHT22;4482;54.332;10.118;2023-06-04T04:37:30;11.30;99.90
8892;DHT22;4482;54.332;10.118;2023-06-04T04:39:57;11.40;99.90
8892;DHT22;4482;54.332;10.118;2023-06-04T04:42:24;11.50;99.90
8892;DHT22;4482;54.332;10.118;2023-06-04T04:44:50;11.60;99.90
8892;DHT22;4482;54.332;10.118;2023-06-04T04:47:19;11.70;99.90
8892;DHT22;4482;54.332;10.118;2023-06-04T04:49:45;11.90;99.90
8892;DHT22;4482;54.332;10.118;2023-06-04T04:52:14;12.10;99.90
8892;DHT22;4482;54.332;10.118;2023-06-04T04:54:41;12.30;99.90
8892;DHT22;4482;54.332;10.118;2023-06-04T04:57:07;12.40;99.90
8892;DHT22;4482;54.332;10.118;2023-06-04T04:59:34;12.50;99.90
8892;DHT22;4482;54.332;10.118;2023-06-04T05:02:01;12.70;99.90
8892;DHT22;4482;54.332;10.118;2023-06-04T05:04:29;12.90;99.90
8892;DHT22;4482;54.332;10.118;2023-06-04T05:06:55;13.10;99.90
8892;DHT22;4482;54.332;10.118;2023-06-04T05:09:22;13.30;99.90
8892;DHT22;4482;54.332;10.118;2023-06-04T05:11:49;13.60;99.90
8892;DHT22;4482;54.332;10.118;2023-06-04T05:14:16;14.10;99.90
8892;DHT22;4482;54.332;10.118;2023-06-04T05:16:43;14.30;99.90
8892;DHT22;4482;54.332;10.118;2023-06-04T05:19:10;14.40;99.90
8892;DHT22;4482;54.332;10.118;2023-06-04T05:21:38;14.50;99.90
8892;DHT22;4482;54.332;10.118;2023-06-04T05:24:05;14.70;99.90
8892;DHT22;4482;54.332;10.118;2023-06-04T05:26:33;15.00;99.90
8892;DHT22;4482;54.332;10.118;2023-06-04T05:28:59;15.10;99.90
8892;DHT22;4482;54.332;10.118;2023-06-04T05:31:26;15.30;99.90
8892;DHT22;4482;54.332;10.118;2023-06-04T05:33:53;15.30;99.90
8892;DHT22;4482;54.332;10.118;2023-06-04T05:36:20;15.40;99.90
8892;DHT22;4482;54.332;10.118;2023-06-04T05:38:48;15.60;99.90
8892;DHT22;4482;54.332;10.118;2023-06-04T05:41:22;15.60;99.90
8892;DHT22;4482;54.332;10.118;2023-06-04T05:43:49;15.70;99.90
8892;DHT22;4482;54.332;10.118;2023-06-04T05:46:15;15.90;99.90
8892;DHT22;4482;54.332;10.118;2023-06-04T05:48:42;15.90;99.90
8892;DHT22;4482;54.332;10.118;2023-06-04T05:51:09;16.30;99.90
8892;DHT22;4482;54.332;10.118;2023-06-04T05:53:35;16.20;99.90
8892;DHT22;4482;54.332;10.118;2023-06-04T05:56:04;16.30;99.90
8892;DHT22;4482;54.332;10.118;2023-06-04T05:58:32;16.60;99.90
8892;DHT22;4482;54.332;10.118;2023-06-04T06:00:59;16.70;99.90
8892;DHT22;4482;54.332;10.118;2023-06-04T06:03:26;16.70;99.90
8892;DHT22;4482;54.332;10.118;2023-06-04T06:05:53;16.80;99.90
8892;DHT22;4482;54.332;10.118;2023-06-04T06:08:22;16.80;99.90
8892;DHT22;4482;54.332;10.118;2023-06-04T06:10:49;17.10;99.90
8892;DHT22;4482;54.332;10.118;2023-06-04T06:13:17;17.30;99.90
8892;DHT22;4482;54.332;10.118;2023-06-04T06:15:45;17.30;99.90
8892;DHT22;4482;54.332;10.118;2023-06-04T06:18:12;17.20;99.90
8892;DHT22;4482;54.332;10.118;2023-06-04T06:20:39;17.20;99.90
8892;DHT22;4482;54.332;10.118;2023-06-04T06:23:06;17.20;99.90
8892;DHT22;4482;54.332;10.118;2023-06-04T06:25:33;17.00;99.90
8892;DHT22;4482;54.332;10.118;2023-06-04T06:28:00;17.20;99.90
8892;DHT22;4482;54.332;10.118;2023-06-04T06:30:28;17.30;99.90
8892;DHT22;4482;54.332;10.118;2023-06-04T06:32:55;17.50;99.90
8892;DHT22;4482;54.332;10.118;2023-06-04T06:35:21;17.90;99.90
8892;DHT22;4482;54.332;10.118;2023-06-04T06:37:48;18.00;99.90
8892;DHT22;4482;54.332;10.118;2023-06-04T06:40:15;17.70;99.90
8892;DHT22;4482;54.332;10.118;2023-06-04T06:42:41;17.60;99.90
8892;DHT22;4482;54.332;10.118;2023-06-04T06:45:08;17.70;99.90
8892;DHT22;4482;54.332;10.118;2023-06-04T06:47:37;18.00;99.90
8892;DHT22;4482;54.332;10.118;2023-06-04T06:50:03;18.30;99.90
8892;DHT22;4482;54.332;10.118;2023-06-04T06:52:36;18.60;99.90
8892;DHT22;4482;54.332;10.118;2023-06-04T06:55:03;19.00;99.90
8892;DHT22;4482;54.332;10.118;2023-06-04T06:57:32;19.00;99.90
8892;DHT22;4482;54.332;10.118;2023-06-04T06:59:58;19.10;99.90
8892;DHT22;4482;54.332;10.118;2023-06-04T07:02:25;19.30;99.90
8892;DHT22;4482;54.332;10.118;2023-06-04T07:04:53;19.60;99.80
8892;DHT22;4482;54.332;10.118;2023-06-04T07:07:22;20.00;96.50
8892;DHT22;4482;54.332;10.118;2023-06-04T07:09:49;20.20;95.40
8892;DHT22;4482;54.332;10.118;2023-06-04T07:12:15;20.50;94.40
8892;DHT22;4482;54.332;10.118;2023-06-04T07:14:42;20.40;93.60
8892;DHT22;4482;54.332;10.118;2023-06-04T07:17:09;20.80;90.70
8892;DHT22;4482;54.332;10.118;2023-06-04T07:19:35;20.90;90.90
8892;DHT22;4482;54.332;10.118;2023-06-04T07:22:03;21.00;92.50
8892;DHT22;4482;54.332;10.118;2023-06-04T07:24:30;21.20;92.80
8892;DHT22;4482;54.332;10.118;2023-06-04T07:26:57;21.60;92.00
8892;DHT22;4482;54.332;10.118;2023-06-04T07:29:23;22.00;90.60
8892;DHT22;4482;54.332;10.118;2023-06-04T07:31:50;22.50;90.20
8892;DHT22;4482;54.332;10.118;2023-06-04T07:34:17;22.90;88.70
8892;DHT22;4482;54.332;10.118;2023-06-04T07:36:43;23.40;86.30
8892;DHT22;4482;54.332;10.118;2023-06-04T07:39:11;23.70;84.20
8892;DHT22;4482;54.332;10.118;2023-06-04T07:41:38;24.40;81.30
8892;DHT22;4482;54.332;10.118;2023-06-04T07:44:05;24.50;79.80
8892;DHT22;4482;54.332;10.118;2023-06-04T07:46:32;24.70;77.10
8892;DHT22;4482;54.332;10.118;2023-06-04T07:48:58;25.00;76.70
8892;DHT22;4482;54.332;10.118;2023-06-04T07:51:25;25.60;75.40
8892;DHT22;4482;54.332;10.118;2023-06-04T07:53:52;26.00;73.30
8892;DHT22;4482;54.332;10.118;2023-06-04T07:56:20;26.90;67.00
8892;DHT22;4482;54.332;10.118;2023-06-04T07:58:46;27.50;59.80
8892;DHT22;4482;54.332;10.118;2023-06-04T08:01:13;28.00;58.20
8892;DHT22;4482;54.332;10.118;2023-06-04T08:03:39;28.40;54.50
8892;DHT22;4482;54.332;10.118;2023-06-04T08:06:07;28.30;52.50
8892;DHT22;4482;54.332;10.118;2023-06-04T08:08:33;29.20;48.40
8892;DHT22;4482;54.332;10.118;2023-06-04T08:11:00;30.00;46.10
8892;DHT22;4482;54.332;10.118;2023-06-04T08:13:29;30.10;44.40
8892;DHT22;4482;54.332;10.118;2023-06-04T08:15:55;29.80;42.90
8892;DHT22;4482;54.332;10.118;2023-06-04T08:18:22;29.70;41.00
8892;DHT22;4482;54.332;10.118;2023-06-04T08:20:49;29.00;42.00
8892;DHT22;4482;54.332;10.118;2023-06-04T08:23:16;29.30;40.80
8892;DHT22;4482;54.332;10.118;2023-06-04T08:25:45;29.80;39.90
8892;DHT22;4482;54.332;10.118;2023-06-04T08:28:13;30.90;38.00
8892;DHT22;4482;54.332;10.118;2023-06-04T08:30:42;31.50;35.70
8892;DHT22;4482;54.332;10.118;2023-06-04T08:33:09;31.30;33.50
8892;DHT22;4482;54.332;10.118;2023-06-04T08:35:37;30.60;32.90
8892;DHT22;4482;54.332;10.118;2023-06-04T08:38:04;30.40;33.10
8892;DHT22;4482;54.332;10.118;2023-06-04T08:40:30;30.90;32.90
8892;DHT22;4482;54.332;10.118;2023-06-04T08:42:58;31.00;32.70
8892;DHT22;4482;54.332;10.118;2023-06-04T08:45:25;31.20;31.10
8892;DHT22;4482;54.332;10.118;2023-06-04T08:47:53;31.50;31.00
8892;DHT22;4482;54.332;10.118;2023-06-04T08:50:23;31.40;30.00
8892;DHT22;4482;54.332;10.118;2023-06-04T08:52:51;31.10;29.50
8892;DHT22;4482;54.332;10.118;2023-06-04T08:55:21;31.00;29.40
8892;DHT22;4482;54.332;10.118;2023-06-04T08:57:48;31.30;28.50
8892;DHT22;4482;54.332;10.118;2023-06-04T09:00:16;31.10;28.60
8892;DHT22;4482;54.332;10.118;2023-06-04T09:02:43;31.30;28.00
8892;DHT22;4482;54.332;10.118;2023-06-04T09:05:15;31.40;28.30
8892;DHT22;4482;54.332;10.118;2023-06-04T09:07:44;31.70;27.70
8892;DHT22;4482;54.332;10.118;2023-06-04T09:10:12;31.60;27.60
8892;DHT22;4482;54.332;10.118;2023-06-04T09:12:40;31.80;26.60
8892;DHT22;4482;54.332;10.118;2023-06-04T09:15:08;31.50;27.60
8892;DHT22;4482;54.332;10.118;2023-06-04T09:17:35;31.30;27.80
8892;DHT22;4482;54.332;10.118;2023-06-04T09:20:02;31.90;27.40
8892;DHT22;4482;54.332;10.118;2023-06-04T09:22:35;31.20;27.50
8892;DHT22;4482;54.332;10.118;2023-06-04T09:25:03;31.00;26.20
8892;DHT22;4482;54.332;10.118;2023-06-04T09:27:37;31.00;27.30
8892;DHT22;4482;54.332;10.118;2023-06-04T09:30:04;31.00;26.60
8892;DHT22;4482;54.332;10.118;2023-06-04T09:32:31;30.60;27.20
8892;DHT22;4482;54.332;10.118;2023-06-04T09:35:07;30.70;26.10
8892;DHT22;4482;54.332;10.118;2023-06-04T09:37:36;31.20;25.70
8892;DHT22;4482;54.332;10.118;2023-06-04T09:40:02;30.60;27.40
8892;DHT22;4482;54.332;10.118;2023-06-04T09:42:30;31.00;27.30
8892;DHT22;4482;54.332;10.118;2023-06-04T09:44:57;30.80;27.30
8892;DHT22;4482;54.332;10.118;2023-06-04T09:47:26;30.40;27.80
8892;DHT22;4482;54.332;10.118;2023-06-04T09:49:57;30.80;27.30
8892;DHT22;4482;54.332;10.118;2023-06-04T09:52:31;30.80;27.30
8892;DHT22;4482;54.332;10.118;2023-06-04T09:55:00;30.30;27.60
8892;DHT22;4482;54.332;10.118;2023-06-04T09:57:26;30.90;28.10
8892;DHT22;4482;54.332;10.118;2023-06-04T09:59:54;31.60;27.30
8892;DHT22;4482;54.332;10.118;2023-06-04T10:02:22;31.30;27.50
8892;DHT22;4482;54.332;10.118;2023-06-04T10:04:50;31.40;26.40
8892;DHT22;4482;54.332;10.118;2023-06-04T10:07:18;31.50;26.20
8892;DHT22;4482;54.332;10.118;2023-06-04T10:09:46;31.40;26.30
8892;DHT22;4482;54.332;10.118;2023-06-04T10:12:15;32.00;26.20
8892;DHT22;4482;54.332;10.118;2023-06-04T10:14:44;33.10;25.20
8892;DHT22;4482;54.332;10.118;2023-06-04T10:17:12;32.00;25.00
8892;DHT22;4482;54.332;10.118;2023-06-04T10:19:39;31.30;25.20
8892;DHT22;4482;54.332;10.118;2023-06-04T10:22:12;31.50;25.80
8892;DHT22;4482;54.332;10.118;2023-06-04T10:24:38;32.30;24.40
8892;DHT22;4482;54.332;10.118;2023-06-04T10:27:05;31.70;24.90
8892;DHT22;4482;54.332;10.118;2023-06-04T10:29:37;32.10;24.90
8892;DHT22;4482;54.332;10.118;2023-06-04T10:32:04;32.00;25.00
8892;DHT22;4482;54.332;10.118;2023-06-04T10:34:31;31.60;26.10
8892;DHT22;4482;54.332;10.118;2023-06-04T10:36:58;31.30;26.70
8892;DHT22;4482;54.332;10.118;2023-06-04T10:39:25;31.70;26.00
8892;DHT22;4482;54.332;10.118;2023-06-04T10:41:57;31.90;25.50
8892;DHT22;4482;54.332;10.118;2023-06-04T10:44:24;31.60;25.10
8892;DHT22;4482;54.332;10.118;2023-06-04T10:46:52;31.50;25.60
8892;DHT22;4482;54.332;10.118;2023-06-04T10:49:25;32.40;25.50
8892;DHT22;4482;54.332;10.118;2023-06-04T10:51:52;32.40;25.00
8892;DHT22;4482;54.332;10.118;2023-06-04T10:54:22;32.50;24.70
8892;DHT22;4482;54.332;10.118;2023-06-04T10:56:48;32.40;25.00
8892;DHT22;4482;54.332;10.118;2023-06-04T10:59:15;31.90;25.50
8892;DHT22;4482;54.332;10.118;2023-06-04T11:01:43;31.80;25.00
8892;DHT22;4482;54.332;10.118;2023-06-04T11:04:19;32.20;24.40
8892;DHT22;4482;54.332;10.118;2023-06-04T11:06:46;32.80;23.80
8892;DHT22;4482;54.332;10.118;2023-06-04T11:09:13;32.40;24.00
8892;DHT22;4482;54.332;10.118;2023-06-04T11:11:43;31.90;24.30
8892;DHT22;4482;54.332;10.118;2023-06-04T11:14:10;32.00;23.80
8892;DHT22;4482;54.332;10.118;2023-06-04T11:16:38;32.00;23.80
8892;DHT22;4482;54.332;10.118;2023-06-04T11:19:05;32.50;23.80
8892;DHT22;4482;54.332;10.118;2023-06-04T11:21:34;32.20;23.40
8892;DHT22;4482;54.332;10.118;2023-06-04T11:24:03;32.50;23.00
8892;DHT22;4482;54.332;10.118;2023-06-04T11:26:30;33.10;22.60
8892;DHT22;4482;54.332;10.118;2023-06-04T11:28:57;32.80;21.90
8892;DHT22;4482;54.332;10.118;2023-06-04T11:31:24;32.80;21.80
8892;DHT22;4482;54.332;10.118;2023-06-04T11:33:50;32.20;22.00
8892;DHT22;4482;54.332;10.118;2023-06-04T11:36:23;31.50;23.00
8892;DHT22;4482;54.332;10.118;2023-06-04T11:38:56;31.40;23.20
8892;DHT22;4482;54.332;10.118;2023-06-04T11:41:23;31.50;23.80
8892;DHT22;4482;54.332;10.118;2023-06-04T11:43:50;31.50;23.90
8892;DHT22;4482;54.332;10.118;2023-06-04T11:46:16;32.00;23.50
8892;DHT22;4482;54.332;10.118;2023-06-04T11:48:43;31.40;24.20
8892;DHT22;4482;54.332;10.118;2023-06-04T11:51:10;31.70;23.80
8892;DHT22;4482;54.332;10.118;2023-06-04T11:53:37;31.30;24.10
8892;DHT22;4482;54.332;10.118;2023-06-04T11:56:05;29.50;24.40
8892;DHT22;4482;54.332;10.118;2023-06-04T11:58:32;27.50;27.00
8892;DHT22;4482;54.332;10.118;2023-06-04T12:00:59;25.50;29.20
8892;DHT22;4482;54.332;10.118;2023-06-04T12:03:35;23.70;32.90
8892;DHT22;4482;54.332;10.118;2023-06-04T12:06:11;22.80;35.30
8892;DHT22;4482;54.332;10.118;2023-06-04T12:08:44;22.00;38.30
8892;DHT22;4482;54.332;10.118;2023-06-04T12:11:21;21.40;41.00
8892;DHT22;4482;54.332;10.118;2023-06-04T12:13:48;21.10;42.30
8892;DHT22;4482;54.332;10.118;2023-06-04T12:16:14;21.00;45.00
8892;DHT22;4482;54.332;10.118;2023-06-04T12:18:41;20.90;46.60
8892;DHT22;4482;54.332;10.118;2023-06-04T12:21:15;21.00;47.60
8892;DHT22;4482;54.332;10.118;2023-06-04T12:23:42;21.00;49.90
8892;DHT22;4482;54.332;10.118;2023-06-04T12:26:20;21.00;51.00
8892;DHT22;4482;54.332;10.118;2023-06-04T12:29:00;21.00;50.00
8892;DHT22;4482;54.332;10.118;2023-06-04T12:31:27;20.90;50.80
8892;DHT22;4482;54.332;10.118;2023-06-04T12:34:00;20.90;51.70
8892;DHT22;4482;54.332;10.118;2023-06-04T12:36:27;20.90;52.40
8892;DHT22;4482;54.332;10.118;2023-06-04T12:38:57;20.80;52.60
8892;DHT22;4482;54.332;10.118;2023-06-04T12:41:25;21.00;53.40
8892;DHT22;4482;54.332;10.118;2023-06-04T12:43:52;20.90;53.90
8892;DHT22;4482;54.332;10.118;2023-06-04T12:46:19;20.90;54.80
8892;DHT22;4482;54.332;10.118;2023-06-04T12:48:47;20.70;55.50
8892;DHT22;4482;54.332;10.118;2023-06-04T12:51:13;20.70;55.50
8892;DHT22;4482;54.332;10.118;2023-06-04T12:53:43;20.50;56.00
8892;DHT22;4482;54.332;10.118;2023-06-04T12:56:09;20.40;57.60
8892;DHT22;4482;54.332;10.118;2023-06-04T12:58:38;20.30;58.70
8892;DHT22;4482;54.332;10.118;2023-06-04T13:01:04;20.40;58.80
8892;DHT22;4482;54.332;10.118;2023-06-04T13:03:31;20.40;59.80
8892;DHT22;4482;54.332;10.118;2023-06-04T13:05:58;20.30;61.50
8892;DHT22;4482;54.332;10.118;2023-06-04T13:08:25;20.20;62.80
8892;DHT22;4482;54.332;10.118;2023-06-04T13:10:52;20.10;64.40
8892;DHT22;4482;54.332;10.118;2023-06-04T13:13:19;20.10;66.60
8892;DHT22;4482;54.332;10.118;2023-06-04T13:15:47;20.00;76.00
8892;DHT22;4482;54.332;10.118;2023-06-04T13:18:14;19.90;82.80
8892;DHT22;4482;54.332;10.118;2023-06-04T13:20:40;19.70;91.30
8892;DHT22;4482;54.332;10.118;2023-06-04T13:23:07;19.50;94.30
8892;DHT22;4482;54.332;10.118;2023-06-04T13:25:34;19.20;98.00
8892;DHT22;4482;54.332;10.118;2023-06-04T13:28:01;18.60;99.90
8892;DHT22;4482;54.332;10.118;2023-06-04T13:30:28;18.10;99.90
8892;DHT22;4482;54.332;10.118;2023-06-04T13:32:56;17.80;99.90
8892;DHT22;4482;54.332;10.118;2023-06-04T13:35:24;17.50;99.90
8892;DHT22;4482;54.332;10.118;2023-06-04T13:37:51;17.60;99.90
8892;DHT22;4482;54.332;10.118;2023-06-04T13:40:19;17.50;99.90
8892;DHT22;4482;54.332;10.118;2023-06-04T13:42:46;17.00;99.90
8892;DHT22;4482;54.332;10.118;2023-06-04T13:45:13;16.80;99.90
8892;DHT22;4482;54.332;10.118;2023-06-04T13:47:39;16.80;99.90
8892;DHT22;4482;54.332;10.118;2023-06-04T13:50:08;16.80;99.90
8892;DHT22;4482;54.332;10.118;2023-06-04T13:52:34;16.60;99.90
8892;DHT22;4482;54.332;10.118;2023-06-04T13:55:01;16.70;99.90
8892;DHT22;4482;54.332;10.118;2023-06-04T13:57:30;16.50;99.90
8892;DHT22;4482;54.332;10.118;2023-06-04T13:59:57;16.60;99.90
8892;DHT22;4482;54.332;10.118;2023-06-04T14:02:26;16.70;99.90
8892;DHT22;4482;54.332;10.118;2023-06-04T14:04:53;16.60;99.90
8892;DHT22;4482;54.332;10.118;2023-06-04T14:07:21;16.60;99.90
8892;DHT22;4482;54.332;10.118;2023-06-04T14:09:48;16.50;99.90
8892;DHT22;4482;54.332;10.118;2023-06-04T14:12:19;16.40;99.90
8892;DHT22;4482;54.332;10.118;2023-06-04T14:14:46;16.40;99.90
8892;DHT22;4482;54.332;10.118;2023-06-04T14:17:13;16.50;99.90
8892;DHT22;4482;54.332;10.118;2023-06-04T14:19:39;16.50;99.90
8892;DHT22;4482;54.332;10.118;2023-06-04T14:22:06;16.40;99.90
8892;DHT22;4482;54.332;10.118;2023-06-04T14:24:34;16.30;99.90
8892;DHT22;4482;54.332;10.118;2023-06-04T14:27:01;16.20;99.90
8892;DHT22;4482;54.332;10.118;2023-06-04T14:29:27;16.20;99.90
8892;DHT22;4482;54.332;10.118;2023-06-04T14:31:54;16.20;99.90
8892;DHT22;4482;54.332;10.118;2023-06-04T14:34:21;16.10;99.90
8892;DHT22;4482;54.332;10.118;2023-06-04T14:36:47;16.10;99.90
8892;DHT22;4482;54.332;10.118;2023-06-04T14:39:14;16.00;99.90
8892;DHT22;4482;54.332;10.118;2023-06-04T14:41:42;15.90;99.90
8892;DHT22;4482;54.332;10.118;2023-06-04T14:44:09;15.90;99.90
8892;DHT22;4482;54.332;10.118;2023-06-04T14:46:36;16.10;99.90
8892;DHT22;4482;54.332;10.118;2023-06-04T14:49:03;16.10;99.90
8892;DHT22;4482;54.332;10.118;2023-06-04T14:51:29;16.00;99.90
8892;DHT22;4482;54.332;10.118;2023-06-04T14:53:56;15.90;99.90
8892;DHT22;4482;54.332;10.118;2023-06-04T14:56:25;15.90;99.90
8892;DHT22;4482;54.332;10.118;2023-06-04T14:58:55;15.90;99.90
8892;DHT22;4482;54.332;10.118;2023-06-04T15:01:21;15.90;99.90
8892;DHT22;4482;54.332;10.118;2023-06-04T15:03:49;15.90;99.90
8892;DHT22;4482;54.332;10.118;2023-06-04T15:06:16;15.80;99.90
8892;DHT22;4482;54.332;10.118;2023-06-04T15:08:42;15.80;99.90
8892;DHT22;4482;54.332;10.118;2023-06-04T15:11:13;15.80;99.90
8892;DHT22;4482;54.332;10.118;2023-06-04T15:13:40;15.80;99.90
8892;DHT22;4482;54.332;10.118;2023-06-04T15:16:08;15.90;99.90
8892;DHT22;4482;54.332;10.118;2023-06-04T15:18:35;15.90;99.90
8892;DHT22;4482;54.332;10.118;2023-06-04T15:21:01;15.80;99.90
8892;DHT22;4482;54.332;10.118;2023-06-04T15:23:28;15.80;99.90
8892;DHT22;4482;54.332;10.118;2023-06-04T15:25:55;15.90;99.90
8892;DHT22;4482;54.332;10.118;2023-06-04T15:28:21;16.00;99.90
8892;DHT22;4482;54.332;10.118;2023-06-04T15:30:48;16.10;99.90
8892;DHT22;4482;54.332;10.118;2023-06-04T15:33:16;16.00;99.90
8892;DHT22;4482;54.332;10.118;2023-06-04T15:35:43;16.00;99.90
8892;DHT22;4482;54.332;10.118;2023-06-04T15:38:09;16.00;99.90
8892;DHT22;4482;54.332;10.118;2023-06-04T15:40:36;16.00;99.90
8892;DHT22;4482;54.332;10.118;2023-06-04T15:43:03;16.10;99.90
8892;DHT22;4482;54.332;10.118;2023-06-04T15:45:29;16.10;99.90
8892;DHT22;4482;54.332;10.118;2023-06-04T15:47:56;16.10;99.90
8892;DHT22;4482;54.332;10.118;2023-06-04T15:50:24;16.20;99.90